createdAt,value
2023-05-25T00:00:11.437Z,7.05
2023-05-25T00:02:39.794Z,7.03
2023-05-25T00:05:09.612Z,7.01
2023-05-25T00:07:36.336Z,7.00
2023-05-25T00:10:03.636Z,6.96
2023-05-25T00:12:30.320Z,6.92
2023-05-25T00:14:57.061Z,6.91
2023-05-25T00:17:24.528Z,6.89
2023-05-25T00:19:51.748Z,6.88
2023-05-25T00:22:18.464Z,6.87
2023-05-25T00:24:45.165Z,6.79
2023-05-25T00:27:11.802Z,6.84
2023-05-25T00:29:38.480Z,6.63
2023-05-25T00:32:05.694Z,6.32
2023-05-25T00:34:32.374Z,6.41
2023-05-25T00:36:58.914Z,6.52
2023-05-25T00:39:25.671Z,6.54
2023-05-25T00:41:52.485Z,6.39
2023-05-25T00:44:22.168Z,6.37
2023-05-25T00:46:51.305Z,6.44
2023-05-25T00:49:20.303Z,6.43
2023-05-25T00:51:48.098Z,6.51
2023-05-25T00:54:18.799Z,6.53
2023-05-25T00:56:56.132Z,6.52
2023-05-25T00:59:35.977Z,6.46
2023-05-25T01:02:08.546Z,6.49
2023-05-25T01:04:41.605Z,6.47
2023-05-25T01:07:11.593Z,6.39
2023-05-25T01:09:41.569Z,6.29
2023-05-25T01:12:09.568Z,6.27
2023-05-25T01:14:38.418Z,6.24
2023-05-25T01:17:06.680Z,6.31
2023-05-25T01:19:34.058Z,6.36
2023-05-25T01:22:15.754Z,6.37
2023-05-25T01:24:54.860Z,6.35
2023-05-25T01:27:30.851Z,6.41
2023-05-25T01:29:59.314Z,6.43
2023-05-25T01:32:27.602Z,6.44
2023-05-25T01:34:56.705Z,6.36
2023-05-25T01:37:27.069Z,6.32
2023-05-25T01:39:54.368Z,6.18
2023-05-25T01:42:20.995Z,6.13
2023-05-25T01:44:49.388Z,6.15
2023-05-25T01:47:22.352Z,6.18
2023-05-25T01:50:11.851Z,6.18
2023-05-25T01:52:56.147Z,6.27
2023-05-25T01:55:27.149Z,6.24
2023-05-25T01:57:58.039Z,6.21
2023-05-25T02:00:31.962Z,6.26
2023-05-25T02:03:00.068Z,6.18
2023-05-25T02:05:28.072Z,6.16
2023-05-25T02:07:54.624Z,6.15
2023-05-25T02:10:21.562Z,6.17
2023-05-25T02:12:48.158Z,6.19
2023-05-25T02:15:16.326Z,6.16
2023-05-25T02:17:43.557Z,6.13
2023-05-25T02:20:11.815Z,6.05
2023-05-25T02:22:38.609Z,5.99
2023-05-25T02:25:05.908Z,5.82
2023-05-25T02:27:33.725Z,5.85
2023-05-25T02:30:00.612Z,5.84
2023-05-25T02:32:29.618Z,5.76
2023-05-25T02:34:56.328Z,5.71
2023-05-25T02:37:23.107Z,5.76
2023-05-25T02:39:49.840Z,5.81
2023-05-25T02:42:16.558Z,5.78
2023-05-25T02:44:48.383Z,5.79
2023-05-25T02:47:19.093Z,5.79
2023-05-25T02:49:46.201Z,5.72
2023-05-25T02:52:13.117Z,5.66
2023-05-25T02:54:40.216Z,5.73
2023-05-25T02:57:06.830Z,5.77
2023-05-25T02:59:33.407Z,5.77
2023-05-25T03:02:00.371Z,5.79
2023-05-25T03:04:27.300Z,5.78
2023-05-25T03:06:54.089Z,5.77
2023-05-25T03:09:21.078Z,5.80
2023-05-25T03:11:47.838Z,5.77
2023-05-25T03:14:14.673Z,5.82
2023-05-25T03:16:41.416Z,5.82
2023-05-25T03:19:08.836Z,5.84
2023-05-25T03:21:35.523Z,5.81
2023-05-25T03:24:02.317Z,5.76
2023-05-25T03:26:29.098Z,5.85
2023-05-25T03:28:55.818Z,5.79
2023-05-25T03:31:23.714Z,5.88
2023-05-25T03:33:50.481Z,5.87
2023-05-25T03:36:17.701Z,5.78
2023-05-25T03:38:44.639Z,5.82
2023-05-25T03:41:11.255Z,5.93
2023-05-25T03:43:37.913Z,5.86
2023-05-25T03:46:04.634Z,5.84
2023-05-25T03:48:31.288Z,5.77
2023-05-25T03:50:57.912Z,5.78
2023-05-25T03:53:24.574Z,5.79
2023-05-25T03:55:52.478Z,5.78
2023-05-25T03:58:19.281Z,5.83
2023-05-25T04:00:46.210Z,5.89
2023-05-25T04:03:12.931Z,5.84
2023-05-25T04:05:39.619Z,5.89
2023-05-25T04:08:07.103Z,5.92
2023-05-25T04:10:33.782Z,5.92
2023-05-25T04:13:00.520Z,6.02
2023-05-25T04:15:27.114Z,6.10
2023-05-25T04:17:54.971Z,6.17
2023-05-25T04:20:21.866Z,6.29
2023-05-25T04:22:48.562Z,6.40
2023-05-25T04:25:15.391Z,6.57
2023-05-25T04:27:42.430Z,6.72
2023-05-25T04:30:11.204Z,6.86
2023-05-25T04:32:38.909Z,6.99
2023-05-25T04:35:05.958Z,7.11
2023-05-25T04:37:33.587Z,7.19
2023-05-25T04:40:00.371Z,7.33
2023-05-25T04:42:27.104Z,7.53
2023-05-25T04:44:55.975Z,7.68
2023-05-25T04:47:25.260Z,7.85
2023-05-25T04:49:52.117Z,8.02
2023-05-25T04:52:18.776Z,8.17
2023-05-25T04:54:46.975Z,8.36
2023-05-25T04:57:13.729Z,8.53
2023-05-25T04:59:40.381Z,8.64
2023-05-25T05:02:07.028Z,8.68
2023-05-25T05:04:33.712Z,8.78
2023-05-25T05:07:00.994Z,8.83
2023-05-25T05:09:27.694Z,8.92
2023-05-25T05:11:54.452Z,9.01
2023-05-25T05:14:21.154Z,9.13
2023-05-25T05:16:48.374Z,9.25
2023-05-25T05:19:15.099Z,9.37
2023-05-25T05:21:41.881Z,9.42
2023-05-25T05:24:08.520Z,9.55
2023-05-25T05:26:48.258Z,9.62
2023-05-25T05:29:21.709Z,9.75
2023-05-25T05:31:48.560Z,9.84
2023-05-25T05:34:15.312Z,9.94
2023-05-25T05:36:53.095Z,9.95
2023-05-25T05:39:24.512Z,9.98
2023-05-25T05:41:51.392Z,9.99
2023-05-25T05:44:18.705Z,10.01
2023-05-25T05:46:45.403Z,10.08
2023-05-25T05:49:12.183Z,10.04
2023-05-25T05:51:38.854Z,10.08
2023-05-25T05:54:06.160Z,10.21
2023-05-25T05:56:33.015Z,10.29
2023-05-25T05:58:59.708Z,10.28
2023-05-25T06:01:26.363Z,10.34
2023-05-25T06:03:54.618Z,10.33
2023-05-25T06:06:21.885Z,10.38
2023-05-25T06:08:48.571Z,10.52
2023-05-25T06:11:15.571Z,10.53
2023-05-25T06:13:42.277Z,10.62
2023-05-25T06:16:09.076Z,10.72
2023-05-25T06:18:35.767Z,10.79
2023-05-25T06:21:02.752Z,10.89
2023-05-25T06:23:29.405Z,11.06
2023-05-25T06:25:56.093Z,11.10
2023-05-25T06:28:22.710Z,11.24
2023-05-25T06:30:49.436Z,11.39
2023-05-25T06:33:16.291Z,11.55
2023-05-25T06:35:43.257Z,11.66
2023-05-25T06:38:11.673Z,11.70
2023-05-25T06:40:38.367Z,11.79
2023-05-25T06:43:05.042Z,11.97
2023-05-25T06:45:31.895Z,12.18
2023-05-25T06:47:58.621Z,12.29
2023-05-25T06:50:25.558Z,12.46
2023-05-25T06:52:52.140Z,12.69
2023-05-25T06:55:18.815Z,12.87
2023-05-25T06:57:45.486Z,12.99
2023-05-25T07:00:13.203Z,13.06
2023-05-25T07:02:39.957Z,13.37
2023-05-25T07:05:07.174Z,13.55
2023-05-25T07:07:33.896Z,13.78
2023-05-25T07:10:03.203Z,14.40
2023-05-25T07:12:29.852Z,14.96
2023-05-25T07:14:57.945Z,15.08
2023-05-25T07:17:24.640Z,14.69
2023-05-25T07:19:51.533Z,14.78
2023-05-25T07:22:19.864Z,14.52
2023-05-25T07:24:47.059Z,14.16
2023-05-25T07:27:16.841Z,14.27
2023-05-25T07:29:43.510Z,14.39
2023-05-25T07:32:10.156Z,15.06
2023-05-25T07:34:36.978Z,15.38
2023-05-25T07:37:03.859Z,14.84
2023-05-25T07:39:30.743Z,15.10
2023-05-25T07:41:57.347Z,14.78
2023-05-25T07:44:24.166Z,14.68
2023-05-25T07:46:51.194Z,14.86
2023-05-25T07:49:17.934Z,15.70
2023-05-25T07:51:45.837Z,16.17
2023-05-25T07:54:12.712Z,16.24
2023-05-25T07:56:39.870Z,16.02
2023-05-25T07:59:06.659Z,15.81
2023-05-25T08:01:33.344Z,15.77
2023-05-25T08:04:00.405Z,15.75
2023-05-25T08:06:27.319Z,15.69
2023-05-25T08:08:54.241Z,16.01
2023-05-25T08:11:25.017Z,15.86
2023-05-25T08:13:51.790Z,15.90
2023-05-25T08:16:19.131Z,16.04
2023-05-25T08:18:47.302Z,16.83
2023-05-25T08:21:14.377Z,16.73
2023-05-25T08:23:42.794Z,16.63
2023-05-25T08:28:42.386Z,16.78
2023-05-25T08:31:09.055Z,16.76
2023-05-25T08:33:35.985Z,17.45
2023-05-25T08:36:02.629Z,17.21
2023-05-25T08:38:29.449Z,16.94
2023-05-25T08:41:06.790Z,17.12
2023-05-25T08:43:34.120Z,17.46
2023-05-25T08:46:06.845Z,16.95
2023-05-25T08:48:41.945Z,17.46
2023-05-25T08:51:11.650Z,17.80
2023-05-25T08:53:40.964Z,17.29
2023-05-25T08:56:13.834Z,17.44
2023-05-25T08:59:01.204Z,18.56
2023-05-25T09:01:32.575Z,19.48
2023-05-25T09:04:00.619Z,19.04
2023-05-25T09:06:28.405Z,18.69
2023-05-25T09:08:55.529Z,18.75
2023-05-25T09:11:36.147Z,19.57
2023-05-25T09:14:07.707Z,19.88
2023-05-25T09:16:35.243Z,20.08
2023-05-25T09:19:02.333Z,18.98
2023-05-25T09:21:29.005Z,17.14
2023-05-25T09:23:56.163Z,17.34
2023-05-25T09:26:22.809Z,16.46
2023-05-25T09:28:49.574Z,17.05
2023-05-25T09:31:16.959Z,18.37
2023-05-25T09:33:44.378Z,19.32
2023-05-25T09:36:12.729Z,18.35
2023-05-25T09:38:40.554Z,19.00
2023-05-25T09:41:07.544Z,19.95
2023-05-25T09:43:44.520Z,19.57
2023-05-25T09:46:11.821Z,19.52
2023-05-25T09:48:38.810Z,19.23
2023-05-25T09:51:07.783Z,19.26
2023-05-25T09:53:34.424Z,20.19
2023-05-25T09:56:03.783Z,20.89
2023-05-25T09:58:31.001Z,22.64
2023-05-25T10:00:57.810Z,23.18
2023-05-25T10:03:24.597Z,21.59
2023-05-25T10:05:53.425Z,22.27
2023-05-25T10:08:21.723Z,22.32
2023-05-25T10:10:50.136Z,20.85
2023-05-25T10:13:22.209Z,20.69
2023-05-25T10:15:53.362Z,21.17
2023-05-25T10:18:25.830Z,21.93
2023-05-25T10:21:03.586Z,22.46
2023-05-25T10:23:42.202Z,23.12
2023-05-25T10:26:10.022Z,22.96
2023-05-25T10:28:38.306Z,21.26
2023-05-25T10:31:06.462Z,20.17
2023-05-25T10:33:34.293Z,19.74
2023-05-25T10:36:10.600Z,19.85
2023-05-25T10:38:40.079Z,20.70
2023-05-25T10:41:09.403Z,21.36
2023-05-25T10:43:36.692Z,22.15
2023-05-25T10:46:04.412Z,22.59
2023-05-25T10:48:40.284Z,22.45
2023-05-25T10:51:08.992Z,22.32
2023-05-25T10:53:36.789Z,23.24
2023-05-25T10:56:08.848Z,22.75
2023-05-25T10:58:35.628Z,23.11
2023-05-25T11:01:13.778Z,23.37
2023-05-25T11:04:02.207Z,24.19
2023-05-25T11:06:40.791Z,24.64
2023-05-25T11:09:07.827Z,23.87
2023-05-25T11:11:43.502Z,23.11
2023-05-25T11:14:42.604Z,21.38
2023-05-25T11:17:15.697Z,22.39
2023-05-25T11:19:51.187Z,22.59
2023-05-25T11:22:20.595Z,23.13
2023-05-25T11:24:51.954Z,23.48
2023-05-25T11:27:27.157Z,23.18
2023-05-25T11:29:55.124Z,23.43
2023-05-25T11:32:22.882Z,23.40
2023-05-25T11:34:53.080Z,23.92
2023-05-25T11:37:21.514Z,23.74
2023-05-25T11:39:49.258Z,23.81
2023-05-25T11:42:17.509Z,23.57
2023-05-25T11:44:44.549Z,23.68
2023-05-25T11:47:19.043Z,24.88
2023-05-25T11:49:49.670Z,24.79
2023-05-25T11:52:18.035Z,25.10
2023-05-25T11:54:45.020Z,24.37
2023-05-25T11:57:39.366Z,22.93
2023-05-25T12:00:07.062Z,21.05
2023-05-25T12:02:41.963Z,21.84
2023-05-25T12:05:11.131Z,22.08
2023-05-25T12:07:47.229Z,22.72
2023-05-25T12:10:17.862Z,23.35
2023-05-25T12:12:50.396Z,21.96
2023-05-25T12:15:21.202Z,22.41
2023-05-25T12:17:48.944Z,23.17
2023-05-25T12:20:17.751Z,23.41
2023-05-25T12:22:45.893Z,23.44
2023-05-25T12:25:14.292Z,23.21
2023-05-25T12:27:41.114Z,22.20
2023-05-25T12:30:10.640Z,22.70
2023-05-25T12:33:02.652Z,22.71
2023-05-25T12:35:44.231Z,23.07
2023-05-25T12:38:18.689Z,23.58
2023-05-25T12:40:45.830Z,23.26
2023-05-25T12:43:13.449Z,23.42
2023-05-25T12:45:43.475Z,23.95
2023-05-25T12:48:10.953Z,23.35
2023-05-25T12:50:37.904Z,22.61
2023-05-25T12:53:05.263Z,21.82
2023-05-25T12:55:34.644Z,22.08
2023-05-25T12:58:03.689Z,22.81
2023-05-25T13:00:36.674Z,22.87
2023-05-25T13:03:05.158Z,21.61
2023-05-25T13:05:34.246Z,21.04
2023-05-25T13:08:05.533Z,21.04
2023-05-25T13:10:33.547Z,21.93
2023-05-25T13:13:01.020Z,21.65
2023-05-25T13:15:28.600Z,21.16
2023-05-25T13:17:58.489Z,21.22
2023-05-25T13:20:26.395Z,21.96
2023-05-25T13:22:55.763Z,22.11
2023-05-25T13:25:22.766Z,22.22
2023-05-25T13:27:51.302Z,22.54
2023-05-25T13:30:19.004Z,22.04
2023-05-25T13:32:46.957Z,21.61
2023-05-25T13:35:33.555Z,21.91
2023-05-25T13:38:00.177Z,21.59
2023-05-25T13:40:26.816Z,22.03
2023-05-25T13:42:53.419Z,21.55
2023-05-25T13:45:20.191Z,21.79
2023-05-25T13:47:47.152Z,22.27
2023-05-25T13:50:14.083Z,21.91
2023-05-25T13:52:40.629Z,21.03
2023-05-25T13:55:07.660Z,20.99
2023-05-25T13:57:34.297Z,21.27
2023-05-25T14:00:00.920Z,21.04
2023-05-25T14:02:27.573Z,20.96
2023-05-25T14:04:54.599Z,20.93
2023-05-25T14:07:21.307Z,21.19
2023-05-25T14:09:47.958Z,21.20
2023-05-25T14:12:14.622Z,20.99
2023-05-25T14:14:41.420Z,21.34
2023-05-25T14:17:08.059Z,20.86
2023-05-25T14:19:35.464Z,20.91
2023-05-25T14:24:31.878Z,20.20
2023-05-25T14:26:58.456Z,20.21
2023-05-25T14:29:25.337Z,19.82
2023-05-25T14:31:52.053Z,19.73
2023-05-25T14:34:18.955Z,19.88
2023-05-25T14:36:45.673Z,20.08
2023-05-25T14:39:15.070Z,19.84
2023-05-25T14:41:43.916Z,20.00
2023-05-25T14:44:10.561Z,19.73
2023-05-25T14:46:37.242Z,19.94
2023-05-25T14:49:03.979Z,20.07
2023-05-25T14:51:30.782Z,20.33
2023-05-25T14:54:00.428Z,20.09
2023-05-25T14:56:28.275Z,20.08
2023-05-25T14:58:54.999Z,19.95
2023-05-25T15:01:23.706Z,19.53
2023-05-25T15:03:52.237Z,19.48
2023-05-25T15:06:19.225Z,19.56
2023-05-25T15:08:46.081Z,19.38
2023-05-25T15:11:12.847Z,19.37
2023-05-25T15:13:41.108Z,19.66
2023-05-25T15:16:11.957Z,19.64
2023-05-25T15:18:38.811Z,19.92
2023-05-25T15:21:05.849Z,19.88
2023-05-25T15:23:32.641Z,19.81
2023-05-25T15:26:04.271Z,19.53
2023-05-25T15:28:31.750Z,19.68
2023-05-25T15:31:01.571Z,19.73
2023-05-25T15:33:39.988Z,19.85
2023-05-25T15:36:16.303Z,19.43
2023-05-25T15:38:43.522Z,19.51
2023-05-25T15:41:11.605Z,19.26
2023-05-25T15:43:38.170Z,19.39
2023-05-25T15:46:04.853Z,19.63
2023-05-25T15:48:31.630Z,19.50
2023-05-25T15:50:58.226Z,19.34
2023-05-25T15:53:25.000Z,19.16
2023-05-25T15:55:51.743Z,19.28
2023-05-25T15:58:18.638Z,19.20
2023-05-25T16:00:45.397Z,19.27
2023-05-25T16:03:12.178Z,19.44
2023-05-25T16:05:38.889Z,19.41
2023-05-25T16:08:05.656Z,19.51
2023-05-25T16:10:32.419Z,19.33
2023-05-25T16:12:59.135Z,19.55
2023-05-25T16:15:26.052Z,19.39
2023-05-25T16:17:52.691Z,19.27
2023-05-25T16:20:19.463Z,19.18
2023-05-25T16:22:46.277Z,19.12
2023-05-25T16:25:12.896Z,19.31
2023-05-25T16:27:39.632Z,19.37
2023-05-25T16:30:07.087Z,19.28
2023-05-25T16:32:33.892Z,19.29
2023-05-25T16:35:00.614Z,19.32
2023-05-25T16:37:27.634Z,19.14
2023-05-25T16:39:54.365Z,19.15
2023-05-25T16:42:21.392Z,18.96
2023-05-25T16:44:47.958Z,18.86
2023-05-25T16:47:14.787Z,18.90
2023-05-25T16:49:41.488Z,18.74
2023-05-25T16:52:08.192Z,18.86
2023-05-25T16:54:35.008Z,18.79
2023-05-25T16:57:04.565Z,18.90
2023-05-25T16:59:31.516Z,18.93
2023-05-25T17:01:59.394Z,18.69
2023-05-25T17:04:26.086Z,18.57
2023-05-25T17:06:52.682Z,18.50
2023-05-25T17:09:19.409Z,18.74
2023-05-25T17:11:46.167Z,18.55
2023-05-25T17:14:13.091Z,18.60
2023-05-25T17:16:39.783Z,18.63
2023-05-25T17:19:06.468Z,18.67
2023-05-25T17:21:33.359Z,18.61
2023-05-25T17:23:59.973Z,18.47
2023-05-25T17:26:26.918Z,18.17
2023-05-25T17:28:53.724Z,18.05
2023-05-25T17:31:20.421Z,17.89
2023-05-25T17:33:47.165Z,17.88
2023-05-25T17:36:13.962Z,17.92
2023-05-25T17:38:41.234Z,17.90
2023-05-25T17:41:07.825Z,17.82
2023-05-25T17:43:34.544Z,17.86
2023-05-25T17:46:01.245Z,17.91
2023-05-25T17:48:28.005Z,17.86
2023-05-25T17:50:55.070Z,17.80
2023-05-25T17:53:21.751Z,17.55
2023-05-25T17:55:48.356Z,17.50
2023-05-25T17:58:14.954Z,17.56
2023-05-25T18:00:41.661Z,17.47
2023-05-25T18:03:08.827Z,17.37
2023-05-25T18:05:35.531Z,17.50
2023-05-25T18:08:02.290Z,17.40
2023-05-25T18:10:28.890Z,17.50
2023-05-25T18:12:55.654Z,17.43
2023-05-25T18:15:22.391Z,17.36
2023-05-25T18:17:49.020Z,17.21
2023-05-25T18:20:15.861Z,17.14
2023-05-25T18:22:42.530Z,17.08
2023-05-25T18:25:09.600Z,16.94
2023-05-25T18:27:36.355Z,16.91
2023-05-25T18:30:03.178Z,16.68
2023-05-25T18:32:29.880Z,16.52
2023-05-25T18:34:57.325Z,16.39
2023-05-25T18:37:24.053Z,16.25
2023-05-25T18:39:50.762Z,16.14
2023-05-25T18:42:17.540Z,16.04
2023-05-25T18:44:44.133Z,15.95
2023-05-25T18:47:11.582Z,15.89
2023-05-25T18:49:38.228Z,15.88
2023-05-25T18:52:06.505Z,15.77
2023-05-25T18:54:33.175Z,15.77
2023-05-25T18:56:59.774Z,15.73
2023-05-25T18:59:26.403Z,15.66
2023-05-25T19:01:53.082Z,15.66
2023-05-25T19:04:20.291Z,15.54
2023-05-25T19:06:47.131Z,15.42
2023-05-25T19:09:13.825Z,15.31
2023-05-25T19:11:40.623Z,15.19
2023-05-25T19:14:07.252Z,15.04
2023-05-25T19:16:34.046Z,15.04
2023-05-25T19:19:00.897Z,14.85
2023-05-25T19:21:27.541Z,14.80
2023-05-25T19:23:54.318Z,14.78
2023-05-25T19:26:20.996Z,14.72
2023-05-25T19:28:47.588Z,14.58
2023-05-25T19:31:14.121Z,14.52
2023-05-25T19:33:41.072Z,14.53
2023-05-25T19:36:07.847Z,14.42
2023-05-25T19:38:41.365Z,14.32
2023-05-25T19:41:08.953Z,14.28
2023-05-25T19:43:36.272Z,14.20
2023-05-25T19:46:03.528Z,14.17
2023-05-25T19:48:30.265Z,14.10
2023-05-25T19:50:56.958Z,14.06
2023-05-25T19:53:23.745Z,14.07
2023-05-25T19:55:50.519Z,14.00
2023-05-25T19:58:17.174Z,13.85
2023-05-25T20:00:43.840Z,13.68
2023-05-25T20:03:10.749Z,13.51
2023-05-25T20:05:37.836Z,13.43
2023-05-25T20:08:04.833Z,13.37
2023-05-25T20:10:32.822Z,13.30
2023-05-25T20:12:59.455Z,13.20
2023-05-25T20:15:26.241Z,13.09
2023-05-25T20:17:52.866Z,13.03
2023-05-25T20:20:19.542Z,12.83
2023-05-25T20:22:46.162Z,12.70
2023-05-25T20:25:12.761Z,12.62
2023-05-25T20:27:39.462Z,12.54
2023-05-25T20:30:06.759Z,12.50
2023-05-25T20:32:33.443Z,12.49
2023-05-25T20:35:00.098Z,12.46
2023-05-25T20:37:26.775Z,12.43
2023-05-25T20:39:53.430Z,12.34
2023-05-25T20:42:20.188Z,12.29
2023-05-25T20:44:46.886Z,12.23
2023-05-25T20:47:13.587Z,12.05
2023-05-25T20:49:40.248Z,11.90
2023-05-25T20:52:07.045Z,11.88
2023-05-25T20:54:33.866Z,11.86
2023-05-25T20:57:04.047Z,11.71
2023-05-25T20:59:32.048Z,11.67
2023-05-25T21:01:58.798Z,11.57
2023-05-25T21:04:25.572Z,11.51
2023-05-25T21:06:52.191Z,11.47
2023-05-25T21:09:18.914Z,11.42
2023-05-25T21:11:45.885Z,11.30
2023-05-25T21:14:12.784Z,11.19
2023-05-25T21:16:39.384Z,11.17
2023-05-25T21:19:06.208Z,11.14
2023-05-25T21:21:36.004Z,11.11
2023-05-25T21:24:02.983Z,11.15
2023-05-25T21:26:31.103Z,11.15
2023-05-25T21:28:57.865Z,11.16
2023-05-25T21:31:25.322Z,11.22
2023-05-25T21:33:53.260Z,11.16
2023-05-25T21:36:20.597Z,11.16
2023-05-25T21:38:47.357Z,11.13
2023-05-25T21:41:13.974Z,11.05
2023-05-25T21:43:40.638Z,10.95
2023-05-25T21:46:07.376Z,10.88
2023-05-25T21:48:34.086Z,10.84
2023-05-25T21:51:00.836Z,10.76
2023-05-25T21:53:27.459Z,10.69
2023-05-25T21:55:54.137Z,10.65
2023-05-25T21:58:20.901Z,10.60
2023-05-25T22:00:47.569Z,10.66
2023-05-25T22:03:14.602Z,10.58
2023-05-25T22:05:41.591Z,10.55
2023-05-25T22:08:08.945Z,10.51
2023-05-25T22:10:36.027Z,10.38
2023-05-25T22:13:02.848Z,10.31
2023-05-25T22:15:29.523Z,10.24
2023-05-25T22:17:56.749Z,10.33
2023-05-25T22:20:23.558Z,10.22
2023-05-25T22:22:50.346Z,10.18
2023-05-25T22:25:17.073Z,10.15
2023-05-25T22:27:43.745Z,10.08
2023-05-25T22:30:10.860Z,10.14
2023-05-25T22:32:37.540Z,10.08
2023-05-25T22:35:04.474Z,10.11
2023-05-25T22:37:31.087Z,10.09
2023-05-25T22:39:57.998Z,10.04
2023-05-25T22:42:24.732Z,9.95
2023-05-25T22:44:51.459Z,9.94
2023-05-25T22:47:18.293Z,9.87
2023-05-25T22:49:45.184Z,9.89
2023-05-25T22:52:12.260Z,9.84
2023-05-25T22:54:39.685Z,9.82
2023-05-25T22:57:06.986Z,9.74
2023-05-25T22:59:33.710Z,9.71
2023-05-25T23:02:00.520Z,9.68
2023-05-25T23:04:27.234Z,9.63
2023-05-25T23:06:53.977Z,9.55
2023-05-25T23:09:20.532Z,9.53
2023-05-25T23:11:47.304Z,9.59
2023-05-25T23:14:14.120Z,9.53
2023-05-25T23:16:41.657Z,9.53
2023-05-25T23:19:08.609Z,9.52
2023-05-25T23:21:35.223Z,9.55
2023-05-25T23:24:01.944Z,9.49
2023-05-25T23:26:28.528Z,9.49
2023-05-25T23:28:55.217Z,9.46
2023-05-25T23:31:21.953Z,9.44
2023-05-25T23:33:48.599Z,9.34
2023-05-25T23:36:15.283Z,9.31
2023-05-25T23:38:42.033Z,9.19
2023-05-25T23:41:08.696Z,9.15
2023-05-25T23:43:35.460Z,9.21
2023-05-25T23:46:02.614Z,9.24
2023-05-25T23:48:29.454Z,9.18
2023-05-25T23:50:56.273Z,9.17
2023-05-25T23:53:22.883Z,9.18
2023-05-25T23:55:49.572Z,9.13
2023-05-25T23:58:16.398Z,9.14
